CheckWX is a tool to help pilots better visualize weather data.  It is not intended as a substitute for an official pre-flight weather briefing.

15:51:35 UTC

KLSE METAR
La Crosse Regional Airport
La Crosse, Wisconsin, USA
Current

10 mins ago

KLSE 091542Z 04007G15KT 10SM FEW015 BKN022 OVC027 23/19 A2985 RMK AO2 LTG DSNT W-NE T02330194
Observed
Jul-9 @ 15:42 UTC
Wind
  • 040° at 7 KTS
  • Gusting to 15 KTS
Visibility
10 SM
Flight Rules
MVFR
Cloud Levels
  • Few at 1,500' AGL
  • Broken at 2,200' AGL
  • Overcast at 2,700' AGL
Temperature
23°C / 73°F
Dewpoint
19°C / 66°F
Humidity
78%
Altimeter
29.85" Hg
Pressure
1010.82 hPa
Previous

25 mins ago

KLSE 091527Z 02005KT 10SM VCTS BKN015 OVC022 23/19 A2986 RMK AO2 LTG DSNT NW-E T02280189
Observed
Jul-9 @ 15:27 UTC
Wind
  • 020° at 5 KTS
Visibility
10 SM
Flight Rules
MVFR
Conditions
Area Thunderstorm
Cloud Levels
  • Broken at 1,500' AGL
  • Overcast at 2,200' AGL
Temperature
23°C / 73°F
Dewpoint
19°C / 66°F
Humidity
78%
Altimeter
29.86" Hg
Pressure
1011.22 hPa
Previous

59 mins ago

KLSE 091453Z COR 020/13G16 10SM BKN025 OVC055 28/22 A2983 RMK AO2 LTG DSNT N AND NW SLP087 T02780222 53006
Observed
Jul-9 @ 14:53 UTC
Visibility
10 SM
Flight Rules
MVFR
Cloud Levels
  • Broken at 2,500' AGL
  • Overcast at 5,500' AGL
Temperature
28°C / 82°F
Dewpoint
22°C / 72°F
Humidity
70%
Altimeter
29.83" Hg
Pressure
1010.12 hPa